OINN  Noshahr  Airport

Iran

Add Bookmark
ICAO OINN
IATA NSH
Type Airport
Status Operational
Latitude
36° 39' 47" N
36.663300
Longitude
51° 27' 52" E
51.464699
Local (DST + 5) UTC (GMT + 4)
May 29, 2015 06:26 May 29, 2015 01:56
Sunrise-Sunset Local UTC
Begin Civil Twilight 05:16 00:46
Sunrise 05:46 01:16
Sunset 08:16 15:46
End Civil Twilight 08:46 16:16
VFR
VFR
MVFR
MVFR
IFR
VFR
LIFR
VFR
Unknown
Unavailable

Current Weather

METAR Observed VFR
OINN 290100Z 12006KT 9999 FEW025CB SCT090 21/17 Q1001 Fri, May 29, 2015 @ 01:00 UTC
(56 Minutes ago)
Visual Flight Rules
Wind Visibility Clouds Conditions
120° at 6 knots (11 kph) 10 km or more
  • Few at 2,500 ft AGL
  • Scattered at 9,000 ft AGL
  • No significant weather
Temperatures Readings Precipitation
Current Temp
21°C
70°F
Dewpoint
17°C
63°F
Humidity 78%
Altimeter 29.56" Hg
Sea Level Pressure 1,001 mb
None Recorded

Additional weather within a 92.6km radius of OINN

Map ICAO Location
OINR 75km W/NW (292°)
VFR
VFR
MVFR
MVFR
IFR
VFR
LIFR
VFR
Unknown
Unavailable
-
-

CheckWX.com is intended as a tool to help pilots better visualize weather data. It is not intended as a substitute for an official weather briefing obtained from a Flight Service Station. CheckWX.com does not meet the FAA requirements for an official pre-flight weather briefing. Therefore, it's important that pilots still call and obtain an official FSS pre-flight weather briefing.

© 2007-2015 CheckWX.com
01:56:09 UTC